Time;durP1;ratioP1;P1;durP2;ratioP2;P2;SDS_P1;SDS_P2;PMS_P1;PMS_P2;Temp;Humidity;BMP_temperature;BMP_pressure;BME280_temperature;BME280_humidity;BME280_pressure;Samples;Min_cycle;Max_cycle;Signal;HPM_P1;HPM_P2
2022/02/07 00:01:57;;;;;;;10.95;1.70;;;4.20;89.90;;;;;;5075612;28;20392;-37
2022/02/07 00:04:27;;;;;;;12.35;2.85;;;4.20;89.90;;;;;;5076206;28;20071;-37
2022/02/07 00:06:53;;;;;;;7.95;1.80;;;4.30;90.00;;;;;;5075829;28;20457;-37
2022/02/07 00:09:19;;;;;;;15.77;2.38;;;4.30;89.90;;;;;;5076080;28;20094;-37
2022/02/07 00:11:45;;;;;;;9.90;1.90;;;4.30;89.90;;;;;;5076027;28;20029;-37
2022/02/07 00:14:11;;;;;;;12.57;2.17;;;4.40;89.80;;;;;;5075691;28;20500;-37
2022/02/07 00:16:37;;;;;;;8.85;2.45;;;4.40;89.70;;;;;;5075689;28;20028;-37
2022/02/07 00:19:05;;;;;;;9.05;2.00;;;4.50;89.70;;;;;;5075560;28;20085;-37
2022/02/07 00:21:32;;;;;;;18.15;2.80;;;4.50;89.50;;;;;;5075771;28;20142;-38
2022/02/07 00:23:58;;;;;;;12.35;2.20;;;4.60;87.20;;;;;;5075759;28;20475;-37
2022/02/07 00:26:23;;;;;;;7.90;1.10;;;4.50;86.50;;;;;;5075534;28;20025;-37
2022/02/07 00:28:51;;;;;;;3.75;1.35;;;4.50;85.40;;;;;;5075522;28;20484;-36
2022/02/07 00:31:17;;;;;;;4.50;0.95;;;4.40;86.20;;;;;;5075755;28;20040;-38
2022/02/07 00:33:42;;;;;;;2.83;1.00;;;4.30;86.10;;;;;;5075624;28;20040;-38
2022/02/07 00:36:09;;;;;;;7.65;1.40;;;4.20;86.60;;;;;;5075297;28;20075;-37
2022/02/07 00:38:34;;;;;;;3.08;1.25;;;4.10;86.50;;;;;;5075329;28;20456;-38
2022/02/07 00:41:21;;;;;;;5.20;1.23;;;4.10;85.50;;;;;;5075542;28;20043;-37
2022/02/07 00:43:53;;;;;;;3.95;0.73;;;4.00;86.30;;;;;;5073895;28;20040;-37
2022/02/07 00:46:58;;;;;;;6.80;1.00;;;4.00;86.30;;;;;;5075226;28;20019;-37
2022/02/07 00:49:11;;;;;;;2.60;0.70;;;4.00;86.20;;;;;;5072893;28;20063;-38
2022/02/07 00:51:36;;;;;;;6.25;1.10;;;3.90;86.20;;;;;;5075137;28;20028;-44
2022/02/07 00:54:02;;;;;;;4.22;1.50;;;4.00;85.50;;;;;;5075007;28;20027;-37
2022/02/07 00:56:28;;;;;;;8.23;1.05;;;3.90;85.50;;;;;;5075310;28;20017;-38
2022/02/07 00:58:53;;;;;;;5.80;1.20;;;3.90;85.50;;;;;;5075392;28;20102;-37
2022/02/07 01:01:19;;;;;;;6.10;1.40;;;3.90;85.50;;;;;;5075290;28;20024;-37
2022/02/07 01:03:44;;;;;;;9.52;1.58;;;4.00;85.10;;;;;;5073657;28;20070;-38
2022/02/07 01:06:10;;;;;;;6.72;1.40;;;4.00;84.80;;;;;;5074772;28;20021;-38
2022/02/07 01:08:41;;;;;;;6.40;1.58;;;4.00;84.90;;;;;;5074997;28;20028;-37
2022/02/07 01:11:15;;;;;;;8.27;1.30;;;4.00;85.10;;;;;;5074683;28;20487;-37
2022/02/07 01:14:12;;;;;;;6.70;1.40;;;4.00;85.00;;;;;;5074804;28;20506;-38
2022/02/07 01:46:34;;;;;;;;;;;4.00;86.30;;;;;;5074552;28;20495;-37
2022/02/07 01:56:52;;;;;;;10.60;2.13;;;4.00;86.60;;;;;;5074042;28;20090;-39
2022/02/07 01:59:18;;;;;;;11.07;1.80;;;4.00;86.60;;;;;;5073681;28;20029;-37
2022/02/07 02:01:44;;;;;;;11.10;1.88;;;4.10;86.70;;;;;;5072356;28;20457;-38
2022/02/07 02:04:09;;;;;;;14.52;2.40;;;4.10;86.50;;;;;;5073609;28;20029;-38
2022/02/07 02:06:36;;;;;;;14.10;2.35;;;4.10;86.70;;;;;;5073817;28;20116;-38
2022/02/07 02:09:04;;;;;;;15.85;1.80;;;4.00;86.30;;;;;;5072507;28;20047;-38
2022/02/07 02:11:30;;;;;;;9.38;1.88;;;4.10;86.50;;;;;;5073416;28;20388;-38
2022/02/07 02:19:36;;;;;;;11.82;2.25;;;4.20;86.40;;;;;;5073554;28;20040;-36
2022/02/07 02:38:29;;;;;;;10.40;1.88;;;4.20;86.20;;;;;;5073339;28;19916;-37
2022/02/07 02:46:24;;;;;;;14.75;2.65;;;4.20;86.40;;;;;;5073057;28;20036;-37
2022/02/07 02:48:50;;;;;;;15.20;2.72;;;4.20;86.60;;;;;;5073007;28;20491;-37
2022/02/07 02:51:16;;;;;;;16.33;2.60;;;4.20;86.70;;;;;;5073208;28;20024;-36
2022/02/07 02:53:42;;;;;;;15.40;2.83;;;4.20;86.70;;;;;;5072999;28;20027;-37
2022/02/07 02:56:08;;;;;;;14.77;2.60;;;4.20;87.00;;;;;;5072876;28;20100;-37
2022/02/07 02:58:33;;;;;;;15.23;2.95;;;4.30;87.20;;;;;;5072774;28;20074;-37
2022/02/07 03:00:59;;;;;;;12.95;2.92;;;4.30;87.40;;;;;;5072879;28;20020;-37
2022/02/07 03:03:25;;;;;;;17.10;2.42;;;4.30;87.40;;;;;;5072853;28;20016;-37
2022/02/07 03:05:51;;;;;;;11.63;2.80;;;4.30;87.40;;;;;;5072858;28;20017;-37
2022/02/07 03:08:19;;;;;;;16.98;2.40;;;4.30;87.40;;;;;;5072797;28;20028;-37
2022/02/07 03:18:35;;;;;;;16.25;3.08;;;4.40;87.40;;;;;;5072880;28;20089;-37
2022/02/07 03:21:01;;;;;;;16.73;2.80;;;4.40;87.20;;;;;;5072683;28;20017;-37
2022/02/07 03:23:27;;;;;;;19.15;3.47;;;4.40;87.10;;;;;;5072975;28;20453;-38
2022/02/07 03:25:54;;;;;;;14.85;2.75;;;4.40;87.10;;;;;;5072626;28;20032;-37
2022/02/07 03:28:21;;;;;;;15.18;2.45;;;4.40;86.90;;;;;;5074886;28;20016;-36
2022/02/07 03:30:47;;;;;;;16.38;2.35;;;4.40;86.90;;;;;;5076636;28;20025;-38
2022/02/07 03:33:12;;;;;;;12.88;2.60;;;4.50;86.90;;;;;;5076702;28;20035;-36
2022/02/07 03:35:38;;;;;;;15.60;3.28;;;4.50;86.60;;;;;;5076541;28;20468;-37
2022/02/07 03:38:06;;;;;;;16.13;2.60;;;4.50;86.30;;;;;;5076391;28;20020;-38
2022/02/07 03:40:31;;;;;;;16.92;2.42;;;4.50;85.90;;;;;;5076438;28;20469;-36
2022/02/07 03:42:57;;;;;;;12.55;2.97;;;4.60;85.70;;;;;;5076180;28;20040;-37
2022/02/07 03:45:23;;;;;;;18.35;2.70;;;4.60;85.50;;;;;;5076378;28;20012;-38
2022/02/07 03:47:49;;;;;;;14.65;3.03;;;4.60;85.00;;;;;;5075020;28;20496;-37
2022/02/07 03:50:15;;;;;;;19.67;3.55;;;4.70;84.80;;;;;;5076223;28;20028;-37
2022/02/07 03:52:41;;;;;;;16.25;3.47;;;4.70;84.60;;;;;;5076132;28;20043;-37
2022/02/07 03:55:07;;;;;;;13.18;2.63;;;4.80;84.50;;;;;;5074781;28;20119;-37
2022/02/07 03:57:33;;;;;;;11.98;2.67;;;4.90;84.10;;;;;;5076137;28;20481;-37
2022/02/07 04:00:01;;;;;;;13.18;2.42;;;4.90;84.10;;;;;;5076006;28;20029;-37
2022/02/07 04:02:27;;;;;;;20.17;2.75;;;4.90;84.10;;;;;;5075931;28;20027;-37
2022/02/07 04:05:17;;;;;;;11.65;2.38;;;5.00;83.80;;;;;;5075946;28;20024;-37
2022/02/07 04:07:38;;;;;;;10.60;2.33;;;5.10;83.70;;;;;;5075732;28;20024;-39
2022/02/07 04:10:04;;;;;;;12.23;2.72;;;5.10;83.90;;;;;;5075839;28;20029;-37
2022/02/07 04:12:29;;;;;;;14.38;2.85;;;5.10;82.90;;;;;;5075772;28;20028;-37
2022/02/07 04:14:56;;;;;;;13.75;2.75;;;5.10;83.30;;;;;;5076013;28;20043;-37
2022/02/07 04:17:26;;;;;;;12.65;2.55;;;5.20;83.10;;;;;;5075992;28;20025;-37
2022/02/07 04:19:57;;;;;;;10.95;2.28;;;5.20;82.90;;;;;;5075730;28;20025;-37
2022/02/07 04:22:25;;;;;;;15.57;2.35;;;5.30;82.80;;;;;;5075665;28;20074;-37
2022/02/07 04:24:50;;;;;;;14.75;2.45;;;5.30;82.30;;;;;;5074312;28;20017;-37
2022/02/07 04:27:16;;;;;;;12.80;3.08;;;5.30;81.90;;;;;;5075573;28;20495;-46
2022/02/07 04:29:42;;;;;;;14.35;2.70;;;5.30;82.30;;;;;;5074284;28;20025;-37
2022/02/07 04:32:08;;;;;;;17.08;3.05;;;5.40;82.00;;;;;;5074113;28;20032;-37
2022/02/07 04:34:33;;;;;;;16.23;3.13;;;5.40;81.70;;;;;;5075560;28;20387;-38
2022/02/07 04:36:59;;;;;;;13.13;2.78;;;5.40;81.60;;;;;;5075335;28;20028;-37
2022/02/07 04:39:25;;;;;;;17.20;2.90;;;5.50;82.00;;;;;;5074742;28;20029;-37
2022/02/07 04:41:53;;;;;;;17.10;2.90;;;5.50;82.00;;;;;;5075317;28;20032;-37
2022/02/07 04:44:25;;;;;;;18.67;3.25;;;5.50;81.50;;;;;;5075471;28;20024;-39
2022/02/07 04:49:27;;;;;;;16.75;2.60;;;5.60;81.90;;;;;;5075230;28;20020;-38
2022/02/07 04:52:00;;;;;;;18.08;3.40;;;5.60;81.80;;;;;;5075404;28;20498;-37
2022/02/07 05:03:01;;;;;;;16.38;2.75;;;5.70;81.70;;;;;;5032603;28;20087;-37
2022/02/07 05:16:09;;;;;;;12.05;2.55;;;5.70;82.10;;;;;;5074636;28;20089;-37
2022/02/07 05:18:34;;;;;;;14.10;3.13;;;5.80;81.80;;;;;;5073274;28;20073;-37
2022/02/07 05:21:00;;;;;;;17.02;3.33;;;5.80;82.10;;;;;;5074835;28;20520;-37
2022/02/07 05:23:26;;;;;;;11.85;2.45;;;5.80;82.20;;;;;;5074493;28;20388;-37
2022/02/07 05:25:51;;;;;;;11.57;2.78;;;5.80;82.30;;;;;;5074561;28;20021;-37
2022/02/07 05:28:17;;;;;;;15.95;3.10;;;5.80;82.30;;;;;;5074457;28;20090;-39
2022/02/07 05:30:43;;;;;;;14.52;2.35;;;5.80;82.10;;;;;;5074593;28;20032;-39
2022/02/07 05:33:08;;;;;;;15.27;2.45;;;5.80;82.80;;;;;;5072886;28;20388;-37
2022/02/07 05:35:34;;;;;;;15.52;3.55;;;5.80;82.30;;;;;;5074365;28;20391;-37
2022/02/07 05:38:01;;;;;;;13.30;2.38;;;5.90;82.30;;;;;;5074375;28;20499;-39
2022/02/07 05:43:05;;;;;;;17.33;4.07;;;5.90;82.40;;;;;;5073879;28;20514;-39
2022/02/07 05:45:30;;;;;;;13.40;2.90;;;5.90;82.00;;;;;;5074205;28;20025;-38
2022/02/07 05:47:56;;;;;;;13.50;2.70;;;5.90;82.30;;;;;;5073947;28;20021;-39
2022/02/07 05:50:22;;;;;;;14.35;3.00;;;5.90;82.50;;;;;;5074077;28;20031;-38
2022/02/07 05:52:47;;;;;;;13.93;2.88;;;5.90;82.70;;;;;;5073809;28;20021;-37
2022/02/07 05:55:15;;;;;;;19.98;3.08;;;5.90;82.70;;;;;;5073886;28;20535;-37
2022/02/07 05:57:41;;;;;;;14.02;3.20;;;5.90;82.80;;;;;;5073788;28;20491;-50
2022/02/07 06:00:08;;;;;;;14.80;2.78;;;5.90;82.90;;;;;;5073719;28;20036;-38
2022/02/07 06:02:34;;;;;;;16.90;2.83;;;5.90;82.90;;;;;;5073759;28;20021;-37
2022/02/07 06:04:59;;;;;;;17.00;3.28;;;5.90;82.80;;;;;;5073640;28;20095;-37
2022/02/07 06:07:25;;;;;;;15.25;2.55;;;5.90;82.90;;;;;;5072380;28;20025;-39
2022/02/07 06:09:50;;;;;;;15.00;3.25;;;6.00;82.90;;;;;;5073511;28;20095;-37
2022/02/07 06:12:16;;;;;;;16.60;3.08;;;6.00;82.70;;;;;;5073546;28;20029;-38
2022/02/07 06:14:42;;;;;;;12.93;2.78;;;6.00;83.00;;;;;;5073762;28;20024;-39
2022/02/07 06:17:07;;;;;;;16.38;2.83;;;6.00;82.80;;;;;;5073397;28;20093;-40
2022/02/07 06:19:33;;;;;;;12.20;2.63;;;6.00;82.50;;;;;;5073605;28;20044;-39
2022/02/07 06:21:58;;;;;;;13.38;2.33;;;6.00;82.80;;;;;;5073639;28;20021;-39
2022/02/07 06:24:24;;;;;;;15.93;2.75;;;6.00;83.00;;;;;;5073363;28;20094;-37
2022/02/07 06:26:50;;;;;;;11.55;2.33;;;6.00;83.00;;;;;;5073452;28;20426;-38
2022/02/07 06:29:16;;;;;;;12.38;2.08;;;6.00;83.20;;;;;;5073349;28;20537;-37
2022/02/07 06:31:41;;;;;;;10.75;2.58;;;5.90;83.30;;;;;;5073232;28;20059;-37
2022/02/07 06:34:08;;;;;;;12.98;2.33;;;5.80;83.60;;;;;;5071990;28;20027;-37
2022/02/07 06:36:34;;;;;;;14.95;2.55;;;5.80;83.80;;;;;;5073168;28;20043;-38
2022/02/07 06:38:59;;;;;;;14.13;2.53;;;5.70;83.90;;;;;;5073147;28;20024;-37
2022/02/07 06:41:25;;;;;;;15.93;2.85;;;5.70;84.00;;;;;;5073077;28;20063;-37
2022/02/07 06:43:51;;;;;;;9.27;2.22;;;5.70;84.10;;;;;;5073114;28;20094;-37
2022/02/07 06:46:16;;;;;;;13.10;2.60;;;5.70;84.30;;;;;;5073084;28;20027;-38
2022/02/07 06:48:42;;;;;;;14.23;2.50;;;5.60;84.40;;;;;;5071724;28;20093;-37
2022/02/07 06:51:08;;;;;;;10.05;2.25;;;5.50;84.50;;;;;;5073003;28;20468;-37
2022/02/07 06:53:34;;;;;;;11.65;2.70;;;5.50;84.70;;;;;;5073299;28;20574;-37
2022/02/07 06:56:00;;;;;;;14.30;2.67;;;5.50;84.80;;;;;;5073256;28;20468;-38
2022/02/07 06:58:25;;;;;;;15.38;2.65;;;5.50;84.90;;;;;;5072859;28;20024;-38
2022/02/07 07:00:51;;;;;;;11.88;2.63;;;5.50;85.10;;;;;;5072887;28;20016;-36
2022/02/07 07:03:19;;;;;;;21.63;3.00;;;5.50;85.10;;;;;;5072563;28;20008;-37
2022/02/07 07:05:47;;;;;;;14.52;2.53;;;5.50;85.20;;;;;;5072792;28;20040;-38
2022/02/07 07:08:13;;;;;;;13.25;3.20;;;5.50;85.20;;;;;;5072853;28;20074;-37
2022/02/07 07:10:39;;;;;;;11.95;2.50;;;5.50;85.30;;;;;;5072881;28;20016;-37
2022/02/07 07:13:11;;;;;;;10.98;2.63;;;5.50;85.40;;;;;;5073062;28;20476;-38
2022/02/07 07:15:41;;;;;;;11.13;2.40;;;5.50;85.30;;;;;;5072816;28;20012;-39
2022/02/07 07:18:07;;;;;;;22.27;3.15;;;5.50;85.30;;;;;;5072645;28;20017;-39
2022/02/07 07:20:35;;;;;;;12.35;2.78;;;5.50;85.40;;;;;;5072995;28;20024;-37
2022/02/07 07:23:01;;;;;;;17.15;2.67;;;5.50;86.10;;;;;;5072872;28;20465;-37
2022/02/07 07:25:29;;;;;;;11.10;2.20;;;5.50;85.60;;;;;;5071309;28;20017;-38
2022/02/07 07:28:06;;;;;;;16.50;3.03;;;5.40;85.60;;;;;;5072739;28;20637;-39
2022/02/07 07:30:38;;;;;;;14.25;2.80;;;5.40;85.80;;;;;;5072675;28;20401;-37
2022/02/07 07:33:09;;;;;;;14.65;3.08;;;5.40;85.90;;;;;;5072494;28;20025;-37
2022/02/07 07:35:34;;;;;;;19.42;2.92;;;5.40;85.80;;;;;;5072554;28;20482;-38
2022/02/07 07:38:00;;;;;;;19.98;2.75;;;5.40;85.80;;;;;;5072507;28;20099;-37
2022/02/07 07:40:26;;;;;;;18.77;3.40;;;5.40;85.80;;;;;;5072355;28;20100;-37
2022/02/07 07:42:54;;;;;;;15.73;2.95;;;5.40;85.80;;;;;;5072310;28;20400;-37
2022/02/07 07:45:24;;;;;;;13.05;2.65;;;5.40;85.90;;;;;;5072709;28;20052;-37
2022/02/07 07:47:52;;;;;;;15.50;2.50;;;5.40;85.90;;;;;;5072731;28;20017;-36
2022/02/07 07:50:23;;;;;;;14.75;2.83;;;5.40;85.90;;;;;;5072483;28;20024;-38
2022/02/07 08:01:17;;;;;;;13.23;2.50;;;5.30;86.00;;;;;;5072417;28;20515;-38
2022/02/07 08:03:49;;;;;;;12.10;2.15;;;5.40;86.20;;;;;;5072277;28;20500;-37
2022/02/07 08:06:21;;;;;;;13.18;3.33;;;5.40;86.20;;;;;;5072220;28;20028;-37
2022/02/07 08:11:27;;;;;;;24.98;3.70;;;5.40;86.10;;;;;;5072655;28;20186;-37
2022/02/07 08:13:54;;;;;;;12.88;2.50;;;5.50;86.10;;;;;;5072204;28;20099;-38
2022/02/07 08:16:20;;;;;;;13.63;2.92;;;5.50;86.10;;;;;;5075837;28;20105;-38
2022/02/07 08:18:45;;;;;;;13.40;2.45;;;5.50;86.10;;;;;;5074433;28;20078;-38
2022/02/07 08:21:11;;;;;;;15.27;3.67;;;5.50;86.10;;;;;;5075716;28;20434;-39
2022/02/07 08:23:39;;;;;;;11.20;2.00;;;5.60;86.10;;;;;;5075694;28;20039;-39
2022/02/07 08:26:05;;;;;;;12.35;2.40;;;5.60;86.10;;;;;;5075901;28;20028;-38
2022/02/07 08:28:30;;;;;;;13.02;1.92;;;5.70;86.10;;;;;;5075654;28;20472;-39
2022/02/07 08:30:56;;;;;;;8.10;2.25;;;5.70;86.70;;;;;;5075514;28;20032;-40
2022/02/07 08:33:22;;;;;;;10.90;1.90;;;5.70;86.10;;;;;;5075398;28;20025;-38
2022/02/07 08:35:48;;;;;;;9.25;2.40;;;5.80;86.10;;;;;;5075413;28;20027;-39
2022/02/07 08:38:13;;;;;;;7.75;2.25;;;5.90;86.00;;;;;;5075314;28;20028;-39
2022/02/07 08:40:39;;;;;;;15.13;2.53;;;5.90;86.00;;;;;;5075341;28;20099;-39
2022/02/07 08:43:05;;;;;;;14.10;2.55;;;6.00;86.00;;;;;;5075155;28;20408;-39
2022/02/07 08:45:31;;;;;;;15.63;2.53;;;6.00;85.80;;;;;;5075560;28;20020;-39
2022/02/07 08:47:56;;;;;;;12.05;3.45;;;6.00;85.70;;;;;;5075340;28;20036;-39
2022/02/07 08:50:27;;;;;;;13.13;2.97;;;6.10;85.80;;;;;;5075551;28;20377;-39
2022/02/07 08:52:54;;;;;;;12.75;2.83;;;6.10;85.60;;;;;;5075066;28;20028;-38
2022/02/07 08:55:29;;;;;;;12.95;2.78;;;6.20;85.60;;;;;;5075425;28;20052;-39
2022/02/07 08:58:01;;;;;;;13.10;2.40;;;6.20;85.50;;;;;;5075262;28;20043;-40
2022/02/07 09:00:50;;;;;;;12.15;2.65;;;6.20;85.50;;;;;;5075165;28;20063;-39
2022/02/07 09:11:15;;;;;;;19.42;3.92;;;6.40;85.30;;;;;;5075110;28;20032;-38
2022/02/07 09:13:44;;;;;;;16.65;3.40;;;6.40;84.90;;;;;;5074881;28;20031;-39
2022/02/07 09:18:38;;;;;;;21.67;3.80;;;6.60;84.60;;;;;;5074738;28;20438;-39
2022/02/07 09:21:08;;;;;;;23.70;3.83;;;6.60;84.60;;;;;;5074979;28;20016;-38
2022/02/07 09:23:35;;;;;;;12.68;2.67;;;6.60;84.60;;;;;;5074735;28;20021;-40
2022/02/07 09:26:01;;;;;;;19.05;3.67;;;6.60;84.60;;;;;;5074291;28;20495;-39
2022/02/07 09:28:28;;;;;;;16.20;3.80;;;6.70;84.60;;;;;;5074552;28;20472;-40
2022/02/07 09:30:54;;;;;;;22.15;3.17;;;6.70;84.60;;;;;;5073067;28;20032;-38
2022/02/07 09:33:21;;;;;;;17.80;3.15;;;6.80;84.50;;;;;;5074282;28;20029;-39
2022/02/07 09:35:49;;;;;;;19.95;3.58;;;6.80;84.40;;;;;;5073002;28;20044;-38
2022/02/07 09:38:16;;;;;;;23.48;3.80;;;6.90;84.40;;;;;;5072882;28;20473;-39
2022/02/07 09:40:48;;;;;;;25.35;4.30;;;7.00;84.10;;;;;;5074081;28;20376;-39
2022/02/07 09:43:14;;;;;;;18.75;3.90;;;7.00;83.90;;;;;;5073913;28;20048;-37
2022/02/07 09:45:41;;;;;;;21.02;3.80;;;7.10;83.50;;;;;;5074114;28;20044;-39
2022/02/07 09:48:11;;;;;;;20.98;3.58;;;7.20;83.30;;;;;;5073996;28;20028;-39
2022/02/07 09:50:38;;;;;;;18.00;2.78;;;7.30;83.10;;;;;;5074241;28;20024;-40
2022/02/07 09:53:05;;;;;;;25.70;3.63;;;7.40;83.10;;;;;;5074128;28;20487;-39
2022/02/07 09:55:31;;;;;;;18.13;3.92;;;7.40;82.50;;;;;;5073896;28;20454;-40
2022/02/07 09:57:57;;;;;;;16.95;3.25;;;7.50;82.80;;;;;;5073735;28;20055;-38
2022/02/07 10:00:32;;;;;;;15.70;3.20;;;7.60;81.70;;;;;;5073824;28;20464;-39
2022/02/07 10:03:12;;;;;;;23.92;4.03;;;7.70;81.40;;;;;;5073557;28;20526;-37
2022/02/07 10:05:56;;;;;;;16.83;3.40;;;7.80;80.90;;;;;;5073886;28;20358;-37
2022/02/07 10:11:06;;;;;;;14.20;2.92;;;7.90;80.40;;;;;;5073827;28;20117;-37
2022/02/07 10:21:57;;;;;;;17.80;3.03;;;7.80;79.00;;;;;;5073715;28;20029;-38
2022/02/07 10:35:37;;;;;;;14.20;2.40;;;7.60;78.40;;;;;;5073610;28;20078;-37
2022/02/07 10:38:19;;;;;;;12.77;2.65;;;7.50;78.40;;;;;;5072444;28;20407;-37
2022/02/07 10:46:18;;;;;;;14.48;3.05;;;7.40;78.60;;;;;;5073450;28;20029;-37
2022/02/07 10:48:54;;;;;;;19.13;3.08;;;7.50;78.60;;;;;;5073073;28;20379;-37
2022/02/07 10:51:20;;;;;;;12.80;2.92;;;7.50;78.50;;;;;;5072986;28;20104;-39
2022/02/07 10:53:48;;;;;;;14.57;3.08;;;7.50;78.70;;;;;;5072911;28;20044;-37
2022/02/07 10:56:20;;;;;;;11.18;2.78;;;7.50;78.80;;;;;;5073039;28;20043;-37
2022/02/07 10:58:49;;;;;;;16.25;3.28;;;7.50;78.80;;;;;;5073157;28;20055;-37
2022/02/07 11:01:19;;;;;;;13.75;3.30;;;7.60;78.30;;;;;;5072958;28;20512;-37
2022/02/07 11:03:51;;;;;;;18.30;3.20;;;7.60;78.20;;;;;;5071859;28;20035;-39
2022/02/07 11:06:21;;;;;;;11.43;3.30;;;7.60;78.10;;;;;;5072921;28;20108;-37
2022/02/07 11:09:05;;;;;;;13.45;3.25;;;7.60;77.90;;;;;;5073139;28;20030;-37
2022/02/07 11:14:31;;;;;;;19.10;3.30;;;7.70;77.90;;;;;;5073118;28;20029;-38
2022/02/07 11:25:20;;;;;;;10.50;2.28;;;8.10;77.20;;;;;;5072993;28;20033;-39
2022/02/07 11:27:52;;;;;;;10.65;2.53;;;8.20;76.30;;;;;;5072892;28;20433;-38
2022/02/07 11:30:20;;;;;;;13.07;2.53;;;8.20;75.00;;;;;;5072876;28;20111;-37
2022/02/07 11:32:48;;;;;;;9.60;2.10;;;8.20;73.30;;;;;;5072755;28;20031;-39
2022/02/07 11:35:13;;;;;;;14.00;2.13;;;8.30;74.00;;;;;;5072852;28;20446;-39
2022/02/07 11:37:40;;;;;;;14.38;2.30;;;8.30;73.70;;;;;;5072554;28;20025;-38
2022/02/07 11:40:27;;;;;;;8.27;2.10;;;8.40;73.00;;;;;;5072453;28;20037;-38
2022/02/07 11:43:12;;;;;;;11.75;2.63;;;8.40;72.60;;;;;;5072288;28;20040;-37
2022/02/07 11:45:48;;;;;;;7.82;2.28;;;8.60;72.50;;;;;;5072707;28;20028;-38
2022/02/07 11:48:14;;;;;;;10.18;1.85;;;8.60;72.00;;;;;;5072985;28;20021;-38
2022/02/07 11:50:44;;;;;;;11.18;2.35;;;8.70;72.10;;;;;;5076326;28;20020;-38
2022/02/07 11:53:11;;;;;;;11.18;2.17;;;8.70;71.80;;;;;;5076254;28;20020;-39
2022/02/07 11:55:43;;;;;;;15.95;2.42;;;8.80;70.60;;;;;;5076525;28;20024;-38
2022/02/07 11:58:15;;;;;;;10.65;2.22;;;8.80;71.30;;;;;;5075953;28;20008;-40
2022/02/07 12:00:47;;;;;;;9.70;1.95;;;8.90;69.40;;;;;;5076093;28;20035;-39
2022/02/07 12:03:15;;;;;;;9.48;2.13;;;8.90;70.00;;;;;;5075108;28;20112;-39
2022/02/07 12:05:52;;;;;;;17.67;2.30;;;9.00;70.00;;;;;;5076363;28;20483;-38
2022/02/07 12:08:31;;;;;;;13.00;2.20;;;9.10;69.80;;;;;;5075962;28;20024;-39
2022/02/07 12:11:02;;;;;;;11.80;2.92;;;9.10;70.00;;;;;;5076136;28;20380;-38
2022/02/07 12:13:31;;;;;;;17.35;2.90;;;9.20;70.10;;;;;;5075875;28;20024;-38
2022/02/07 12:15:58;;;;;;;13.05;2.55;;;9.10;68.90;;;;;;5076163;28;20426;-38
2022/02/07 12:18:26;;;;;;;11.48;2.15;;;9.10;69.50;;;;;;5076061;28;20013;-38
2022/02/07 12:20:54;;;;;;;12.68;2.67;;;9.10;69.50;;;;;;5075950;28;20511;-38
2022/02/07 12:23:30;;;;;;;14.60;2.20;;;9.00;69.30;;;;;;5075731;28;20528;-38
2022/02/07 12:26:08;;;;;;;9.40;2.35;;;9.00;69.50;;;;;;5075568;28;20031;-37
2022/02/07 12:28:44;;;;;;;14.35;2.15;;;9.00;68.50;;;;;;5075867;28;20403;-39
2022/02/07 12:31:21;;;;;;;8.32;1.83;;;9.00;69.10;;;;;;5075519;28;20081;-38
2022/02/07 12:34:10;;;;;;;6.65;1.90;;;9.00;69.50;;;;;;5075464;28;20032;-38
2022/02/07 12:36:37;;;;;;;13.20;2.33;;;9.00;70.10;;;;;;5075519;28;20024;-38
2022/02/07 12:39:13;;;;;;;13.27;2.22;;;8.90;69.10;;;;;;5075402;28;20447;-40
2022/02/07 12:41:39;;;;;;;9.45;2.03;;;8.80;70.40;;;;;;5075518;28;20020;-40
2022/02/07 12:44:07;;;;;;;10.45;2.33;;;8.70;70.10;;;;;;5074096;28;20425;-40
2022/02/07 12:46:39;;;;;;;11.65;2.10;;;8.60;70.40;;;;;;5075581;28;20021;-39
2022/02/07 12:49:11;;;;;;;8.32;2.17;;;8.50;70.90;;;;;;5075283;28;20029;-40
2022/02/07 12:51:42;;;;;;;7.88;1.85;;;8.50;71.20;;;;;;5075465;28;20024;-39
2022/02/07 12:54:17;;;;;;;8.60;2.00;;;8.50;71.00;;;;;;5075262;28;20020;-39
2022/02/07 12:56:43;;;;;;;10.32;2.20;;;8.60;70.40;;;;;;5075203;28;20028;-40
2022/02/07 12:59:09;;;;;;;10.35;1.80;;;8.70;69.30;;;;;;5075069;28;20024;-39
2022/02/07 13:01:38;;;;;;;5.00;1.70;;;8.70;68.70;;;;;;5074366;28;20104;-39
2022/02/07 13:04:15;;;;;;;12.32;2.70;;;8.80;69.30;;;;;;5075122;28;20016;-40
2022/02/07 13:06:50;;;;;;;11.38;2.03;;;8.80;69.60;;;;;;5074963;28;20024;-40
2022/02/07 13:09:23;;;;;;;8.27;1.70;;;8.80;69.60;;;;;;5073671;28;20060;-39
2022/02/07 13:12:00;;;;;;;13.68;2.30;;;8.80;69.90;;;;;;5074100;28;20404;-39
2022/02/07 13:14:26;;;;;;;14.85;2.05;;;8.80;69.40;;;;;;5075081;28;20059;-40
2022/02/07 13:16:52;;;;;;;11.43;2.10;;;8.80;68.70;;;;;;5074792;28;20426;-37
2022/02/07 13:19:20;;;;;;;10.07;2.03;;;8.80;68.60;;;;;;5074971;28;20063;-40
2022/02/07 13:21:49;;;;;;;8.18;1.80;;;8.70;68.80;;;;;;5074704;28;20560;-40
2022/02/07 13:24:17;;;;;;;9.00;1.65;;;8.70;69.10;;;;;;5074906;28;20027;-39
2022/02/07 13:26:48;;;;;;;11.10;2.53;;;8.70;69.50;;;;;;5074574;28;20024;-39
2022/02/07 13:29:22;;;;;;;13.52;2.20;;;8.70;69.00;;;;;;5074530;28;20035;-39
2022/02/07 13:32:00;;;;;;;11.52;2.55;;;8.70;69.60;;;;;;5074439;28;20020;-40
2022/02/07 13:34:31;;;;;;;6.30;1.55;;;8.70;69.70;;;;;;5074702;28;20016;-39
2022/02/07 13:37:12;;;;;;;11.52;1.98;;;8.80;69.30;;;;;;5074421;28;20436;-40
2022/02/07 13:39:57;;;;;;;7.38;1.85;;;8.80;68.90;;;;;;5074477;28;20478;-39
2022/02/07 13:42:25;;;;;;;12.70;2.08;;;8.80;68.70;;;;;;5074268;28;20060;-39
2022/02/07 13:44:50;;;;;;;5.55;1.60;;;8.90;68.70;;;;;;5072979;28;20016;-39
2022/02/07 13:47:19;;;;;;;9.93;1.95;;;8.90;67.50;;;;;;5074244;28;20020;-42
2022/02/07 13:49:55;;;;;;;11.05;1.90;;;8.90;68.50;;;;;;5074206;28;20039;-39
2022/02/07 13:52:21;;;;;;;8.95;1.88;;;8.80;68.90;;;;;;5073968;28;20028;-40
2022/02/07 13:54:47;;;;;;;11.02;2.03;;;8.90;69.10;;;;;;5073994;28;20384;-40
2022/02/07 13:57:13;;;;;;;8.38;1.88;;;8.90;68.90;;;;;;5073906;28;20033;-40
2022/02/07 13:59:39;;;;;;;9.38;2.00;;;8.90;69.30;;;;;;5073794;28;20027;-40
2022/02/07 14:02:26;;;;;;;6.85;1.52;;;8.90;69.80;;;;;;5073793;28;20024;-40
2022/02/07 14:04:53;;;;;;;7.15;1.75;;;9.00;69.50;;;;;;5074134;28;20050;-40
2022/02/07 14:07:19;;;;;;;7.68;2.08;;;9.00;69.70;;;;;;5073991;28;20503;-40
2022/02/07 14:09:45;;;;;;;7.85;2.22;;;9.10;69.40;;;;;;5073571;28;20029;-39
2022/02/07 14:12:12;;;;;;;8.65;1.80;;;9.20;69.20;;;;;;5072734;28;20109;-38
2022/02/07 14:14:38;;;;;;;9.88;2.55;;;9.20;68.60;;;;;;5073918;28;20020;-40
2022/02/07 14:17:05;;;;;;;8.30;1.92;;;9.20;67.60;;;;;;5073657;28;20170;-40
2022/02/07 14:19:38;;;;;;;7.25;1.60;;;9.10;68.10;;;;;;5073512;28;20020;-40
2022/02/07 14:22:04;;;;;;;7.18;2.47;;;9.00;68.10;;;;;;5073738;28;20024;-40
2022/02/07 14:24:30;;;;;;;6.68;1.77;;;9.00;68.10;;;;;;5073439;28;20476;-40
2022/02/07 14:26:56;;;;;;;9.07;2.13;;;9.00;67.60;;;;;;5073497;28;20017;-38
2022/02/07 14:29:21;;;;;;;11.48;1.95;;;9.00;67.60;;;;;;5073555;28;20419;-39
2022/02/07 14:31:47;;;;;;;6.65;1.73;;;9.00;67.50;;;;;;5073629;28;20024;-40
2022/02/07 14:34:13;;;;;;;8.90;1.88;;;9.10;66.70;;;;;;5073274;28;20438;-40
2022/02/07 14:36:38;;;;;;;9.55;2.15;;;9.10;66.60;;;;;;5073124;28;20052;-39
2022/02/07 14:39:08;;;;;;;8.10;1.60;;;9.10;65.90;;;;;;5073385;28;20465;-39
2022/02/07 14:41:34;;;;;;;8.30;1.95;;;9.10;66.40;;;;;;5071812;28;20541;-40
2022/02/07 14:44:02;;;;;;;10.20;1.48;;;9.10;66.20;;;;;;5073142;28;20016;-38
2022/02/07 14:46:36;;;;;;;9.25;1.88;;;9.00;66.30;;;;;;5073419;28;20549;-39
2022/02/07 14:49:03;;;;;;;9.85;1.85;;;8.90;66.50;;;;;;5073322;28;20061;-39
2022/02/07 14:51:29;;;;;;;12.85;2.88;;;8.80;67.20;;;;;;5073410;28;20393;-38
2022/02/07 14:53:55;;;;;;;7.25;1.88;;;8.80;67.60;;;;;;5071660;28;20027;-38
2022/02/07 14:56:21;;;;;;;3.55;1.23;;;8.80;67.90;;;;;;5072924;28;20081;-40
2022/02/07 14:58:46;;;;;;;13.57;1.67;;;8.80;68.00;;;;;;5072826;28;20100;-38
2022/02/07 15:01:12;;;;;;;8.48;2.13;;;8.90;67.50;;;;;;5072897;28;20027;-38
2022/02/07 15:03:38;;;;;;;6.47;1.52;;;8.90;66.90;;;;;;5073170;28;20070;-38
2022/02/07 15:06:05;;;;;;;7.88;1.73;;;8.80;66.40;;;;;;5072953;28;20040;-38
2022/02/07 15:08:32;;;;;;;10.70;1.85;;;8.80;66.20;;;;;;5073157;28;20427;-37
2022/02/07 15:10:59;;;;;;;6.18;1.35;;;8.80;66.70;;;;;;5073110;28;20021;-38
2022/02/07 15:13:31;;;;;;;12.35;1.98;;;8.80;67.00;;;;;;5072836;28;20020;-37
2022/02/07 15:15:57;;;;;;;7.20;1.50;;;8.80;66.40;;;;;;5072809;28;20027;-38
2022/02/07 15:18:23;;;;;;;7.95;1.83;;;8.80;66.30;;;;;;5072682;28;20025;-38
2022/02/07 15:20:49;;;;;;;6.10;1.70;;;8.80;65.70;;;;;;5072999;28;20476;-43
2022/02/07 15:23:16;;;;;;;7.70;1.58;;;8.70;66.00;;;;;;5073297;28;20016;-37
2022/02/07 15:25:42;;;;;;;8.45;1.80;;;8.60;66.00;;;;;;5076990;28;20106;-39
2022/02/07 15:28:09;;;;;;;8.25;1.67;;;8.50;66.20;;;;;;5076805;28;20052;-38
2022/02/07 15:30:41;;;;;;;7.03;1.65;;;8.40;66.40;;;;;;5077026;28;20032;-38
2022/02/07 15:33:09;;;;;;;8.38;1.75;;;8.30;66.40;;;;;;5076533;28;20025;-39
2022/02/07 15:35:36;;;;;;;7.15;1.50;;;8.20;67.00;;;;;;5076858;28;20441;-39